Terminal Aerodrome Forecast
Issued by NWS

Home | Current Version | Previous Version | Text Only | Print | Product List | Glossary On
Versions: 1 2 3 4 5 6 7 8 9 10 11
000
FTUS42 TJSJ 112320
TAFJMZ
TAF
TJMZ 112320Z 1200/1224 06008KT P6SM SCT030
     FM121200 08004KT P6SM FEW030
     FM121600 23007KT P6SM FEW150
      AMD NOT SKED=

USA.gov is the U.S. government's official web portal to all federal, state and local government web resources and services.